METAR Data
IDs: Format: Raw Decoded Include TAF

Data at: 1748 UTC 16 Oct 2021

KRVS 161653Z 35006KT 10SM CLR 18/03 A3038 RMK AO2 SLP296 T01830028